Time;durP1;ratioP1;P1;durP2;ratioP2;P2;SDS_P1;SDS_P2;PMS_P1;PMS_P2;Temp;Humidity;BMP_temperature;BMP_pressure;BME280_temperature;BME280_humidity;BME280_pressure;Samples;Min_cycle;Max_cycle;Signal;HPM_P1;HPM_P2
2022/10/20 00:00:22;;;;;;;3.60;2.60;;;23.40;47.20;;;;;;4968212;28;20061;-59
2022/10/20 00:02:49;;;;;;;3.22;2.92;;;23.40;47.20;;;;;;4969456;28;20043;-59
2022/10/20 00:05:17;;;;;;;3.83;2.67;;;23.40;47.20;;;;;;4964895;28;20097;-59
2022/10/20 00:07:44;;;;;;;3.72;3.05;;;23.40;47.20;;;;;;4969684;28;20065;-59
2022/10/20 00:10:11;;;;;;;3.33;2.53;;;23.40;47.20;;;;;;4969716;28;20332;-59
2022/10/20 00:12:38;;;;;;;3.30;2.63;;;23.40;47.20;;;;;;4968927;28;20134;-59
2022/10/20 00:15:06;;;;;;;3.67;2.65;;;23.40;47.30;;;;;;4969562;28;20058;-59
2022/10/20 00:17:33;;;;;;;2.72;2.33;;;23.40;47.20;;;;;;4969339;28;20047;-59
2022/10/20 00:20:00;;;;;;;2.85;2.58;;;23.40;47.20;;;;;;4969977;28;20081;-59
2022/10/20 00:22:27;;;;;;;3.28;2.72;;;23.40;47.10;;;;;;4969138;28;20038;-59
2022/10/20 00:24:54;;;;;;;4.65;2.78;;;23.40;47.10;;;;;;4956086;28;20050;-59
2022/10/20 00:27:21;;;;;;;3.00;2.35;;;23.40;47.10;;;;;;4972525;28;20648;-59
2022/10/20 00:29:48;;;;;;;3.15;2.67;;;23.40;47.10;;;;;;4973679;28;20073;-59
2022/10/20 00:32:15;;;;;;;2.50;2.17;;;23.40;47.00;;;;;;4972357;28;20543;-59
2022/10/20 00:34:42;;;;;;;3.63;2.78;;;23.40;47.00;;;;;;4972621;28;20415;-59
2022/10/20 00:37:09;;;;;;;2.45;2.25;;;23.40;47.00;;;;;;4968373;28;20139;-59
2022/10/20 00:39:36;;;;;;;2.95;2.40;;;23.40;47.10;;;;;;4973698;28;20083;-59
2022/10/20 00:42:04;;;;;;;2.80;2.15;;;23.40;47.10;;;;;;4972404;28;20563;-59
2022/10/20 00:44:53;;;;;;;4.32;2.60;;;23.30;47.00;;;;;;4973097;28;20051;-59
2022/10/20 00:47:34;;;;;;;2.85;2.50;;;23.30;47.00;;;;;;4971115;28;20047;-59
2022/10/20 00:50:11;;;;;;;2.88;2.45;;;23.30;47.60;;;;;;4973622;28;20072;-59
2022/10/20 00:52:40;;;;;;;2.30;2.10;;;23.30;47.10;;;;;;4972402;28;20065;-59
2022/10/20 00:55:10;;;;;;;2.03;1.83;;;23.30;47.00;;;;;;4972995;28;20340;-59
2022/10/20 00:57:38;;;;;;;2.85;2.63;;;23.30;47.00;;;;;;4972483;28;20538;-59
2022/10/20 01:00:07;;;;;;;3.30;2.65;;;23.30;47.00;;;;;;4972771;28;20050;-59
2022/10/20 01:02:35;;;;;;;3.78;2.42;;;23.30;47.00;;;;;;4972800;28;20086;-59
2022/10/20 01:05:03;;;;;;;2.15;1.80;;;23.30;47.10;;;;;;4972502;28;20408;-59
2022/10/20 01:07:30;;;;;;;3.22;2.42;;;23.30;47.00;;;;;;4972628;28;20054;-59
2022/10/20 01:09:57;;;;;;;2.38;1.98;;;23.30;47.00;;;;;;4968012;28;20439;-59
2022/10/20 01:12:49;;;;;;;2.92;2.58;;;23.30;47.00;;;;;;4972920;28;20209;-59
2022/10/20 01:15:33;;;;;;;2.78;2.28;;;23.30;47.00;;;;;;4972787;28;20217;-59
2022/10/20 01:18:29;;;;;;;2.95;2.65;;;23.30;47.00;;;;;;4972279;28;20050;-59
2022/10/20 01:21:35;;;;;;;2.53;2.30;;;23.30;47.00;;;;;;4972799;28;20046;-59
2022/10/20 01:24:23;;;;;;;2.00;1.90;;;23.30;47.00;;;;;;4971581;28;20530;-59
2022/10/20 01:27:27;;;;;;;3.35;2.60;;;23.30;47.10;;;;;;4972976;28;20087;-59
2022/10/20 01:30:16;;;;;;;1.90;1.80;;;23.30;47.10;;;;;;4972300;28;20070;-59
2022/10/20 01:33:10;;;;;;;2.53;2.10;;;23.30;47.20;;;;;;4972536;28;20047;-59
2022/10/20 01:35:59;;;;;;;1.80;1.70;;;23.20;47.10;;;;;;4970879;28;20462;-59
2022/10/20 01:38:41;;;;;;;2.10;1.90;;;23.20;47.10;;;;;;4972099;28;20407;-59
2022/10/20 01:41:33;;;;;;;2.95;2.28;;;23.20;47.10;;;;;;4968855;28;20414;-58
2022/10/20 01:44:03;;;;;;;1.92;1.75;;;23.20;47.10;;;;;;4971685;28;20109;-59
2022/10/20 01:46:32;;;;;;;3.47;2.30;;;23.20;47.00;;;;;;4971996;28;20061;-59
2022/10/20 01:49:02;;;;;;;2.30;1.75;;;23.20;46.90;;;;;;4971376;28;20054;-59
2022/10/20 01:51:31;;;;;;;1.95;1.70;;;23.20;46.90;;;;;;4972180;28;20211;-59
2022/10/20 01:53:58;;;;;;;2.25;2.05;;;23.20;46.90;;;;;;4970931;28;20109;-59
2022/10/20 01:56:48;;;;;;;2.85;2.22;;;23.20;46.90;;;;;;4972472;28;20618;-59
2022/10/20 01:59:32;;;;;;;;;;;23.20;46.90;;;;;;4971631;28;20214;-59
2022/10/20 02:02:35;;;;;;;1.92;1.73;;;23.20;46.90;;;;;;4970734;28;19969;-59
2022/10/20 02:05:32;;;;;;;2.13;1.92;;;23.20;46.90;;;;;;4971177;28;20054;-59
2022/10/20 02:08:30;;;;;;;2.00;1.80;;;23.20;46.90;;;;;;4971572;28;20054;-59
2022/10/20 02:11:01;;;;;;;2.13;1.83;;;23.20;46.90;;;;;;4971036;28;20078;-59
2022/10/20 02:13:30;;;;;;;1.75;1.65;;;23.20;46.90;;;;;;4965831;28;20046;-59
2022/10/20 02:16:01;;;;;;;2.00;1.80;;;23.10;46.90;;;;;;4969882;28;20476;-59
2022/10/20 02:18:37;;;;;;;1.90;1.27;;;23.20;47.00;;;;;;4971318;28;20047;-59
2022/10/20 02:21:05;;;;;;;2.17;1.80;;;23.10;46.90;;;;;;4970780;28;20054;-59
2022/10/20 02:23:37;;;;;;;2.08;1.60;;;23.10;46.90;;;;;;4969195;28;20050;-59
2022/10/20 02:26:11;;;;;;;2.78;1.63;;;23.10;46.90;;;;;;4971658;28;20047;-59
2022/10/20 02:28:43;;;;;;;2.55;1.60;;;23.10;46.90;;;;;;4970322;28;20259;-59
2022/10/20 02:31:10;;;;;;;1.52;1.42;;;23.10;47.00;;;;;;4971335;28;20498;-59
2022/10/20 02:33:39;;;;;;;1.40;1.30;;;23.10;47.00;;;;;;4970549;28;20554;-59
2022/10/20 02:36:14;;;;;;;1.40;1.30;;;23.10;47.00;;;;;;4970556;28;20047;-59
2022/10/20 02:38:41;;;;;;;1.88;1.65;;;23.10;47.10;;;;;;4971085;28;20050;-59
2022/10/20 02:41:09;;;;;;;1.63;1.48;;;23.10;47.20;;;;;;4969325;28;20415;-59
2022/10/20 02:43:36;;;;;;;2.15;1.65;;;23.10;47.20;;;;;;4970543;28;20507;-59
2022/10/20 02:46:03;;;;;;;1.92;1.50;;;23.10;47.30;;;;;;4966220;28;20050;-59
2022/10/20 02:48:30;;;;;;;1.80;1.52;;;23.10;47.30;;;;;;4970696;28;20047;-59
2022/10/20 02:50:57;;;;;;;2.72;1.50;;;23.10;47.30;;;;;;4971057;28;20051;-59
2022/10/20 02:53:24;;;;;;;1.45;1.45;;;23.10;47.30;;;;;;4968870;28;20047;-59
2022/10/20 02:55:51;;;;;;;2.53;1.88;;;23.00;47.40;;;;;;4971299;28;20061;-59
2022/10/20 02:58:18;;;;;;;1.65;1.55;;;23.10;47.50;;;;;;4970184;28;20043;-59
2022/10/20 03:00:47;;;;;;;1.70;1.55;;;23.10;47.60;;;;;;4970589;28;20054;-59
2022/10/20 03:03:14;;;;;;;1.55;1.45;;;23.10;47.60;;;;;;4971057;28;20043;-59
2022/10/20 03:05:43;;;;;;;1.10;1.10;;;23.10;47.60;;;;;;4970200;28;20057;-59
2022/10/20 03:08:11;;;;;;;1.98;1.50;;;23.00;47.60;;;;;;4971015;28;20318;-59
2022/10/20 03:10:38;;;;;;;2.65;1.77;;;23.10;47.70;;;;;;4969053;28;20440;-59
2022/10/20 03:13:05;;;;;;;1.60;1.48;;;23.00;47.60;;;;;;4970738;28;20403;-59
2022/10/20 03:15:32;;;;;;;1.38;1.27;;;23.10;47.60;;;;;;4970589;28;20050;-59
2022/10/20 03:17:59;;;;;;;1.52;1.30;;;23.10;47.50;;;;;;4965474;28;20499;-59
2022/10/20 03:20:26;;;;;;;2.67;2.00;;;23.10;47.50;;;;;;4970568;28;20074;-59
2022/10/20 03:22:53;;;;;;;1.95;1.80;;;23.00;47.40;;;;;;4969735;28;20496;-59
2022/10/20 03:25:20;;;;;;;1.70;1.60;;;23.00;47.40;;;;;;4969845;28;20496;-59
2022/10/20 03:27:47;;;;;;;4.32;1.70;;;23.00;47.40;;;;;;4970220;28;20039;-60
2022/10/20 03:30:15;;;;;;;2.10;1.90;;;23.00;47.40;;;;;;4969588;28;20046;-59
2022/10/20 03:32:42;;;;;;;1.90;1.80;;;23.00;47.30;;;;;;4969573;28;20531;-59
2022/10/20 03:35:09;;;;;;;2.00;1.90;;;23.00;47.30;;;;;;4969934;28;20546;-59
2022/10/20 03:37:36;;;;;;;3.75;2.40;;;23.00;47.30;;;;;;4969649;28;20440;-59
2022/10/20 03:40:03;;;;;;;2.42;2.03;;;23.00;47.20;;;;;;4969907;28;20464;-59
2022/10/20 03:42:30;;;;;;;3.05;2.15;;;23.00;47.30;;;;;;4969942;28;20054;-59
2022/10/20 03:44:57;;;;;;;3.22;2.40;;;23.00;47.20;;;;;;4969499;28;20057;-59
2022/10/20 03:47:24;;;;;;;4.82;2.35;;;23.00;47.10;;;;;;4964224;28;20093;-59
2022/10/20 03:49:51;;;;;;;2.63;2.42;;;23.00;47.10;;;;;;4964990;28;20054;-59
2022/10/20 03:52:18;;;;;;;2.50;2.30;;;23.00;47.10;;;;;;4967889;28;20055;-59
2022/10/20 03:54:45;;;;;;;4.20;2.70;;;23.00;47.10;;;;;;4966891;28;20500;-59
2022/10/20 03:57:13;;;;;;;3.25;2.85;;;23.00;47.10;;;;;;4953426;28;20047;-59
2022/10/20 03:59:40;;;;;;;5.32;2.70;;;22.90;47.00;;;;;;4958488;28;20510;-59
2022/10/20 04:02:07;;;;;;;2.55;2.35;;;22.90;47.50;;;;;;4969920;28;20051;-59
2022/10/20 04:04:34;;;;;;;2.55;2.28;;;23.00;46.90;;;;;;4964024;28;20074;-59
2022/10/20 04:07:01;;;;;;;5.38;2.85;;;23.00;46.90;;;;;;4952818;28;20125;-59
2022/10/20 04:09:28;;;;;;;2.85;2.50;;;22.90;46.80;;;;;;4950244;28;20283;-59
2022/10/20 04:11:55;;;;;;;7.38;2.70;;;22.90;46.80;;;;;;4949459;28;20411;-59
2022/10/20 04:14:22;;;;;;;5.03;3.75;;;22.90;46.80;;;;;;4950310;28;20055;-59
2022/10/20 04:16:49;;;;;;;2.67;2.40;;;22.90;46.70;;;;;;4950199;28;20053;-59
2022/10/20 04:19:16;;;;;;;3.10;2.42;;;22.90;46.80;;;;;;4950455;28;20055;-59
2022/10/20 04:21:43;;;;;;;2.83;2.47;;;22.90;46.80;;;;;;4945661;28;20047;-59
2022/10/20 04:24:10;;;;;;;3.17;2.47;;;22.90;46.80;;;;;;4947377;28;20481;-59
2022/10/20 04:26:37;;;;;;;3.45;2.88;;;22.90;46.80;;;;;;4960433;28;20047;-59
2022/10/20 04:29:04;;;;;;;3.60;2.30;;;22.90;46.90;;;;;;4970771;28;20500;-59
2022/10/20 04:31:31;;;;;;;2.75;2.55;;;22.90;46.80;;;;;;4972409;28;20053;-59
2022/10/20 04:33:58;;;;;;;3.47;2.72;;;22.90;47.40;;;;;;4977927;28;20046;-59
2022/10/20 04:36:25;;;;;;;13.93;3.15;;;22.90;46.70;;;;;;4955889;28;20051;-59
2022/10/20 04:38:52;;;;;;;2.80;2.60;;;22.90;46.50;;;;;;4950216;28;20054;-59
2022/10/20 04:41:19;;;;;;;2.55;2.35;;;22.90;46.40;;;;;;4954687;28;20046;-59
2022/10/20 04:43:51;;;;;;;2.42;2.22;;;22.90;46.30;;;;;;4969073;28;20378;-59
2022/10/20 04:46:19;;;;;;;2.85;2.60;;;22.90;46.20;;;;;;4969394;28;20055;-59
2022/10/20 04:48:46;;;;;;;2.50;2.30;;;22.90;46.10;;;;;;4968340;28;20082;-59
2022/10/20 04:51:14;;;;;;;3.25;2.83;;;22.90;46.00;;;;;;4969117;28;20045;-60
2022/10/20 04:53:41;;;;;;;2.90;2.60;;;22.90;46.10;;;;;;4964131;28;20081;-59
2022/10/20 04:56:12;;;;;;;2.55;2.22;;;22.80;46.10;;;;;;4967216;28;20047;-59
2022/10/20 04:58:39;;;;;;;;;;;22.80;46.10;;;;;;4960946;28;20046;-59
2022/10/20 05:01:08;;;;;;;2.60;2.40;;;22.80;46.20;;;;;;4959804;28;19930;-59
2022/10/20 05:03:36;;;;;;;2.70;2.35;;;22.80;46.20;;;;;;4965427;28;20051;-59
2022/10/20 05:06:15;;;;;;;2.40;2.20;;;22.80;46.20;;;;;;4969306;28;20051;-59
2022/10/20 05:08:48;;;;;;;2.92;2.60;;;22.70;46.10;;;;;;4968675;28;20369;-59
2022/10/20 05:11:17;;;;;;;2.30;2.13;;;22.70;46.10;;;;;;4971667;28;20053;-60
2022/10/20 05:13:44;;;;;;;4.32;2.30;;;22.70;46.10;;;;;;4967853;28;20046;-59
2022/10/20 05:16:12;;;;;;;3.38;2.00;;;22.70;46.10;;;;;;4960195;28;20050;-59
2022/10/20 05:18:39;;;;;;;2.30;2.10;;;22.70;46.10;;;;;;4965312;28;20494;-58
2022/10/20 05:21:09;;;;;;;4.78;2.50;;;22.70;46.10;;;;;;4966176;28;20582;-57
2022/10/20 05:23:38;;;;;;;4.45;1.98;;;22.70;46.20;;;;;;4964335;28;20415;-58
2022/10/20 05:26:08;;;;;;;6.70;2.38;;;22.70;46.40;;;;;;4960739;28;20055;-58
2022/10/20 05:28:35;;;;;;;2.22;2.00;;;22.70;46.60;;;;;;4959826;28;20043;-58
2022/10/20 05:31:07;;;;;;;3.13;2.35;;;22.70;46.70;;;;;;4966063;28;20082;-58
2022/10/20 05:33:35;;;;;;;3.50;2.13;;;22.70;46.70;;;;;;4962653;28;20762;-59
2022/10/20 05:36:07;;;;;;;2.63;2.38;;;22.70;46.70;;;;;;4964185;28;20510;-58
2022/10/20 05:38:35;;;;;;;2.20;2.10;;;22.70;46.70;;;;;;4955916;28;20434;-58
2022/10/20 05:41:11;;;;;;;2.03;1.92;;;22.70;46.70;;;;;;4952097;28;20055;-59
2022/10/20 05:43:38;;;;;;;2.55;1.92;;;22.70;46.80;;;;;;4953856;28;20842;-59
2022/10/20 05:46:08;;;;;;;2.40;2.08;;;22.70;46.70;;;;;;4958159;28;20143;-59
2022/10/20 05:48:35;;;;;;;3.10;2.40;;;22.80;46.90;;;;;;4964797;28;20046;-59
2022/10/20 05:51:19;;;;;;;2.95;2.45;;;22.80;47.00;;;;;;4961196;28;20070;-59
2022/10/20 05:53:47;;;;;;;3.25;2.13;;;22.90;47.00;;;;;;4965787;28;20455;-59
2022/10/20 05:56:17;;;;;;;4.85;2.35;;;22.90;46.90;;;;;;4954606;28;20069;-59
2022/10/20 05:58:44;;;;;;;3.25;2.40;;;22.90;46.70;;;;;;4959342;28;20039;-58
2022/10/20 06:01:19;;;;;;;4.05;2.63;;;22.90;46.50;;;;;;4962709;28;20051;-58
2022/10/20 06:03:58;;;;;;;4.97;2.60;;;23.00;46.30;;;;;;4961257;28;20133;-58
2022/10/20 06:06:28;;;;;;;2.88;2.58;;;23.00;46.00;;;;;;4961997;28;20058;-60
2022/10/20 06:08:56;;;;;;;;;;;23.00;45.90;;;;;;4961732;28;20047;-60
2022/10/20 06:11:25;;;;;;;3.33;2.70;;;23.00;45.90;;;;;;4960370;28;19926;-62
2022/10/20 06:13:52;;;;;;;3.65;2.95;;;23.10;46.40;;;;;;4956927;28;20454;-61
2022/10/20 06:16:21;;;;;;;4.90;2.75;;;23.10;46.60;;;;;;4959761;28;20046;-61
2022/10/20 06:18:49;;;;;;;3.10;2.80;;;23.20;46.80;;;;;;4960152;28;20061;-61
2022/10/20 06:21:24;;;;;;;4.97;3.15;;;23.30;47.00;;;;;;4957773;28;20387;-59
2022/10/20 06:23:52;;;;;;;7.35;2.70;;;23.30;47.00;;;;;;4959978;28;20088;-60
2022/10/20 06:26:22;;;;;;;3.13;2.53;;;23.30;47.10;;;;;;4964603;28;20480;-61
2022/10/20 06:28:55;;;;;;;5.70;3.05;;;23.40;47.40;;;;;;4960214;28;20092;-60
2022/10/20 06:31:33;;;;;;;11.07;3.20;;;23.40;47.00;;;;;;4957960;28;20157;-62
2022/10/20 06:34:04;;;;;;;3.72;2.78;;;23.40;46.90;;;;;;4957642;28;20043;-59
2022/10/20 06:36:36;;;;;;;4.13;2.95;;;23.50;46.90;;;;;;4956308;28;20050;-59
2022/10/20 06:39:06;;;;;;;3.13;2.58;;;23.50;46.90;;;;;;4952537;28;20047;-60
2022/10/20 06:41:34;;;;;;;5.20;3.10;;;23.50;46.90;;;;;;4953269;28;20073;-59
2022/10/20 06:44:02;;;;;;;7.10;3.30;;;23.60;46.80;;;;;;4954105;28;20046;-59
2022/10/20 06:46:31;;;;;;;3.67;2.70;;;23.60;46.70;;;;;;4956180;28;20069;-59
2022/10/20 06:49:00;;;;;;;3.22;2.55;;;23.70;46.60;;;;;;4954783;28;20059;-57
2022/10/20 06:51:27;;;;;;;4.13;2.70;;;23.70;46.50;;;;;;4958309;28;20082;-57
2022/10/20 06:53:54;;;;;;;7.65;2.85;;;23.70;46.50;;;;;;4956317;28;20483;-58
2022/10/20 06:56:24;;;;;;;4.90;3.13;;;23.70;46.30;;;;;;4957041;28;20069;-57
2022/10/20 06:58:53;;;;;;;3.35;2.80;;;23.70;46.10;;;;;;4957392;28;20055;-59
2022/10/20 07:01:32;;;;;;;6.28;2.90;;;23.80;45.90;;;;;;4962410;28;20047;-58
2022/10/20 07:04:03;;;;;;;4.90;3.05;;;23.80;45.80;;;;;;4958301;28;20079;-57
2022/10/20 07:06:33;;;;;;;4.53;3.00;;;23.80;45.80;;;;;;4960911;28;20051;-58
2022/10/20 07:09:07;;;;;;;9.63;3.42;;;23.90;45.70;;;;;;4957119;28;21076;-59
2022/10/20 07:11:34;;;;;;;5.25;2.80;;;23.90;45.70;;;;;;4956990;28;20367;-57
2022/10/20 07:14:02;;;;;;;5.15;3.38;;;23.90;45.50;;;;;;4960597;28;20053;-59
2022/10/20 07:16:31;;;;;;;4.57;2.80;;;23.90;45.40;;;;;;4957834;28;20062;-58
2022/10/20 07:19:02;;;;;;;6.78;3.42;;;23.90;45.30;;;;;;4965188;28;20629;-58
2022/10/20 07:21:30;;;;;;;;;;;24.00;45.30;;;;;;4962324;28;20054;-58
2022/10/20 07:24:05;;;;;;;8.73;3.33;;;24.00;45.20;;;;;;4961449;28;19969;-58
2022/10/20 07:26:35;;;;;;;4.43;3.60;;;24.10;45.30;;;;;;4964610;28;20077;-58
2022/10/20 07:29:03;;;;;;;3.65;3.20;;;24.10;45.60;;;;;;4962369;28;20054;-58
2022/10/20 07:31:37;;;;;;;3.85;3.35;;;24.10;45.30;;;;;;4962707;28;20055;-58
2022/10/20 07:34:06;;;;;;;5.05;3.67;;;24.10;45.30;;;;;;4958542;28;20153;-58
2022/10/20 07:36:58;;;;;;;7.35;3.40;;;24.20;45.30;;;;;;4962656;28;20051;-59
2022/10/20 07:39:27;;;;;;;8.05;3.50;;;24.20;45.20;;;;;;4958088;28;20570;-59
2022/10/20 07:41:54;;;;;;;6.00;3.30;;;24.20;43.80;;;;;;4959667;28;20042;-61
2022/10/20 07:44:22;;;;;;;4.68;3.75;;;24.20;44.40;;;;;;4958050;28;20318;-59
2022/10/20 07:46:49;;;;;;;7.53;3.35;;;24.30;44.60;;;;;;4961624;28;20518;-59
2022/10/20 07:49:17;;;;;;;4.20;2.95;;;24.30;44.70;;;;;;4954293;28;20051;-59
2022/10/20 07:52:04;;;;;;;5.55;2.67;;;24.30;44.60;;;;;;4961562;28;20454;-58
2022/10/20 07:54:31;;;;;;;5.97;3.63;;;24.30;44.60;;;;;;4965407;28;20528;-59
2022/10/20 07:56:58;;;;;;;5.30;3.00;;;24.40;44.60;;;;;;4959020;28;20042;-60
2022/10/20 07:59:27;;;;;;;3.42;3.08;;;24.40;44.50;;;;;;4957101;28;20574;-60
2022/10/20 08:01:54;;;;;;;4.10;3.10;;;24.40;44.50;;;;;;4956572;28;20074;-60
2022/10/20 08:04:24;;;;;;;;;;;24.50;44.40;;;;;;4956307;28;20046;-61
2022/10/20 08:06:53;;;;;;;5.55;3.38;;;24.50;44.30;;;;;;4954027;28;19922;-60
2022/10/20 08:09:21;;;;;;;4.25;2.67;;;24.50;44.00;;;;;;4956591;28;20047;-61
2022/10/20 08:11:48;;;;;;;3.50;2.92;;;24.50;43.90;;;;;;4952591;28;20531;-61
2022/10/20 08:14:21;;;;;;;4.13;3.13;;;24.50;43.90;;;;;;4953729;28;20050;-60
2022/10/20 08:16:48;;;;;;;5.10;3.03;;;24.50;43.90;;;;;;4956416;28;20891;-60
2022/10/20 08:19:15;;;;;;;7.57;3.25;;;24.60;44.00;;;;;;4956184;28;20093;-59
2022/10/20 08:21:56;;;;;;;8.15;2.80;;;24.60;44.00;;;;;;4955006;28;20057;-59
2022/10/20 08:24:23;;;;;;;4.18;2.78;;;24.60;43.80;;;;;;4957211;28;20515;-60
2022/10/20 08:26:50;;;;;;;7.47;2.70;;;24.70;43.80;;;;;;4955238;28;20047;-60
2022/10/20 08:29:17;;;;;;;4.30;3.05;;;24.70;43.80;;;;;;4954974;28;20051;-60
2022/10/20 08:31:44;;;;;;;4.32;2.53;;;24.70;43.70;;;;;;4954063;28;20073;-59
2022/10/20 08:34:11;;;;;;;4.53;2.90;;;24.70;43.60;;;;;;4958158;28;20130;-60
2022/10/20 08:36:38;;;;;;;3.75;2.60;;;24.80;43.60;;;;;;4962045;28;20054;-59
2022/10/20 08:39:05;;;;;;;4.38;2.42;;;24.80;43.60;;;;;;4960821;28;20501;-59
2022/10/20 08:41:37;;;;;;;5.78;2.67;;;24.90;43.50;;;;;;4958391;28;21352;-60
2022/10/20 08:44:29;;;;;;;6.03;3.05;;;24.90;43.30;;;;;;4956912;28;20053;-58
2022/10/20 08:46:58;;;;;;;6.70;3.00;;;24.90;43.30;;;;;;4977044;28;20077;-60
2022/10/20 08:49:29;;;;;;;3.38;1.98;;;24.90;43.20;;;;;;4963781;28;20057;-60
2022/10/20 08:51:57;;;;;;;6.45;2.42;;;24.90;43.10;;;;;;4962060;28;20058;-59
2022/10/20 08:54:24;;;;;;;2.40;2.13;;;25.00;43.10;;;;;;4958286;28;20043;-61
2022/10/20 08:56:52;;;;;;;7.85;2.17;;;25.00;42.90;;;;;;4955628;28;20062;-60
2022/10/20 08:59:33;;;;;;;5.03;2.00;;;25.00;42.80;;;;;;4954537;28;20387;-60
2022/10/20 09:02:06;;;;;;;4.38;2.40;;;25.00;42.80;;;;;;4954202;28;20062;-61
2022/10/20 09:04:40;;;;;;;3.65;2.13;;;25.00;42.70;;;;;;4953809;28;20105;-60
2022/10/20 09:07:20;;;;;;;2.75;2.00;;;25.00;42.70;;;;;;4961149;28;20069;-60
2022/10/20 09:09:47;;;;;;;2.83;2.10;;;25.00;42.60;;;;;;4956552;28;20054;-59
2022/10/20 09:12:15;;;;;;;5.40;2.47;;;25.10;42.60;;;;;;4956312;28;20058;-59
2022/10/20 09:14:42;;;;;;;2.95;2.08;;;25.00;42.40;;;;;;4962938;28;20050;-59
2022/10/20 09:17:15;;;;;;;1.60;1.50;;;25.10;42.40;;;;;;4962417;28;20043;-59
2022/10/20 09:19:53;;;;;;;4.07;2.47;;;25.10;42.40;;;;;;4962063;28;20509;-60
2022/10/20 09:22:23;;;;;;;1.98;1.73;;;25.10;42.40;;;;;;4964657;28;20046;-59
2022/10/20 09:24:51;;;;;;;;;;;25.10;42.30;;;;;;4956798;28;20063;-61
2022/10/20 09:27:36;;;;;;;3.20;1.90;;;25.10;42.80;;;;;;4958335;28;19930;-59
2022/10/20 09:30:24;;;;;;;2.38;1.92;;;25.20;42.20;;;;;;4963344;28;20070;-59
2022/10/20 09:32:52;;;;;;;2.30;1.88;;;25.20;42.20;;;;;;4959644;28;20050;-60
2022/10/20 09:35:29;;;;;;;3.92;1.70;;;25.20;42.00;;;;;;4960032;28;20050;-60
2022/10/20 09:38:15;;;;;;;2.85;1.60;;;25.30;41.90;;;;;;4961292;28;20142;-60
2022/10/20 09:40:52;;;;;;;2.30;1.83;;;25.30;41.70;;;;;;4965892;28;20053;-59
2022/10/20 09:43:20;;;;;;;2.60;2.05;;;25.20;41.50;;;;;;4957931;28;20058;-60
2022/10/20 09:45:57;;;;;;;1.55;1.42;;;25.20;41.40;;;;;;4958948;28;20053;-61
2022/10/20 09:48:28;;;;;;;4.50;1.65;;;25.30;41.00;;;;;;4960168;28;20046;-60
2022/10/20 09:50:57;;;;;;;6.25;2.40;;;25.30;41.20;;;;;;4966175;28;20061;-60
2022/10/20 09:53:38;;;;;;;2.17;1.73;;;25.30;41.10;;;;;;4960451;28;20637;-61
2022/10/20 09:56:08;;;;;;;1.48;1.38;;;25.30;41.00;;;;;;4959769;28;20498;-61
2022/10/20 09:58:37;;;;;;;3.58;1.92;;;25.30;40.80;;;;;;4962193;28;20050;-61
2022/10/20 10:01:14;;;;;;;4.00;1.60;;;25.30;40.70;;;;;;4963065;28;20092;-61
2022/10/20 10:03:48;;;;;;;2.15;1.60;;;25.40;40.70;;;;;;4964504;28;20078;-62
2022/10/20 10:06:39;;;;;;;2.65;2.22;;;25.30;40.50;;;;;;4957056;28;20051;-62
2022/10/20 10:09:33;;;;;;;1.95;1.33;;;25.30;40.30;;;;;;4959480;28;20050;-59
2022/10/20 10:12:15;;;;;;;3.47;1.88;;;25.40;40.30;;;;;;4957694;28;20046;-60
2022/10/20 10:14:53;;;;;;;1.52;1.42;;;25.30;40.10;;;;;;4956462;28;20047;-61
2022/10/20 10:17:36;;;;;;;1.35;1.25;;;25.40;40.00;;;;;;4959356;28;20074;-61
2022/10/20 10:20:35;;;;;;;4.03;1.45;;;25.40;39.90;;;;;;4965654;28;20458;-60
2022/10/20 10:23:19;;;;;;;2.72;1.60;;;25.40;39.70;;;;;;4950397;28;20058;-61
2022/10/20 10:25:49;;;;;;;3.53;1.30;;;25.30;39.50;;;;;;4958983;28;20091;-61
2022/10/20 10:28:29;;;;;;;2.55;1.60;;;25.30;39.50;;;;;;4963028;28;20054;-62
2022/10/20 10:31:16;;;;;;;3.05;1.75;;;25.30;39.40;;;;;;4961338;28;20050;-62
2022/10/20 10:33:44;;;;;;;4.90;1.50;;;25.30;39.40;;;;;;4956884;28;20061;-61
2022/10/20 10:36:30;;;;;;;4.53;1.50;;;25.30;39.20;;;;;;4956271;28;20047;-61
2022/10/20 10:38:59;;;;;;;2.20;1.92;;;25.40;39.10;;;;;;4957646;28;20049;-60
2022/10/20 10:41:53;;;;;;;1.30;1.20;;;25.30;39.10;;;;;;4959405;28;20121;-60
2022/10/20 10:44:35;;;;;;;1.90;1.10;;;25.30;39.10;;;;;;4957421;28;20058;-61
2022/10/20 10:47:37;;;;;;;1.75;1.45;;;25.40;39.20;;;;;;4953003;28;20070;-61
2022/10/20 10:50:29;;;;;;;4.38;1.73;;;25.40;39.10;;;;;;4962047;28;20074;-61
2022/10/20 10:53:33;;;;;;;2.63;1.27;;;25.40;39.10;;;;;;4960367;28;20043;-61
2022/10/20 10:56:30;;;;;;;1.73;1.02;;;25.40;39.00;;;;;;4956952;28;20097;-61
2022/10/20 10:59:14;;;;;;;2.35;1.40;;;25.40;39.00;;;;;;4959779;28;20113;-62
2022/10/20 11:02:03;;;;;;;3.75;1.65;;;25.40;39.00;;;;;;4959446;28;20070;-61
2022/10/20 11:05:02;;;;;;;2.45;1.90;;;25.40;39.00;;;;;;4959193;28;20055;-61
2022/10/20 11:08:09;;;;;;;2.63;1.10;;;25.40;38.90;;;;;;4962110;28;20062;-61
2022/10/20 11:11:12;;;;;;;0.80;0.80;;;25.40;38.90;;;;;;4959214;28;20388;-62
2022/10/20 11:13:59;;;;;;;5.18;1.75;;;25.40;38.80;;;;;;4957455;28;20483;-61
2022/10/20 11:16:59;;;;;;;4.90;0.98;;;25.50;38.90;;;;;;4962239;28;20047;-60
2022/10/20 11:19:56;;;;;;;4.22;1.13;;;25.40;38.70;;;;;;4956974;28;20404;-60
2022/10/20 11:22:48;;;;;;;4.20;1.42;;;25.50;38.70;;;;;;4961994;28;20050;-60
2022/10/20 11:25:31;;;;;;;2.60;1.23;;;25.50;38.80;;;;;;4957035;28;20400;-61
2022/10/20 11:27:59;;;;;;;3.13;1.00;;;25.50;38.90;;;;;;4960786;28;20065;-61
2022/10/20 11:30:27;;;;;;;2.45;1.08;;;25.50;39.00;;;;;;4960520;28;20074;-61
2022/10/20 11:33:04;;;;;;;3.47;1.10;;;25.60;39.20;;;;;;4963305;28;20177;-61
2022/10/20 11:35:57;;;;;;;1.05;0.93;;;25.60;39.30;;;;;;4960534;28;20047;-61
2022/10/20 11:38:38;;;;;;;1.75;1.33;;;25.60;39.30;;;;;;4964630;28;20054;-61
2022/10/20 11:41:34;;;;;;;5.13;0.88;;;25.70;39.20;;;;;;4959421;28;20070;-61
2022/10/20 11:44:16;;;;;;;4.53;1.63;;;25.70;39.20;;;;;;4962452;28;20051;-61
2022/10/20 11:46:59;;;;;;;1.40;1.10;;;25.70;39.60;;;;;;4959894;28;20057;-60
2022/10/20 11:49:27;;;;;;;1.63;0.93;;;25.80;39.00;;;;;;4959910;28;20046;-61
2022/10/20 11:52:23;;;;;;;1.75;1.10;;;25.70;38.80;;;;;;4960830;28;20050;-61
2022/10/20 11:55:10;;;;;;;1.30;1.10;;;25.70;38.50;;;;;;4962155;28;20053;-61
2022/10/20 11:58:13;;;;;;;1.73;1.08;;;25.70;38.30;;;;;;4959813;28;20055;-59
2022/10/20 12:01:20;;;;;;;1.50;0.93;;;25.70;38.10;;;;;;4955596;28;20059;-61
2022/10/20 12:04:10;;;;;;;2.85;1.00;;;25.80;37.90;;;;;;4945845;28;20047;-60
2022/10/20 12:07:07;;;;;;;2.47;1.30;;;25.70;37.80;;;;;;4961634;28;20046;-62
2022/10/20 12:10:07;;;;;;;2.38;1.42;;;25.70;37.70;;;;;;4961593;28;20074;-62
2022/10/20 12:12:37;;;;;;;;;;;25.80;37.70;;;;;;4959269;28;20365;-61
2022/10/20 12:15:17;;;;;;;;;;;25.70;37.60;;;;;;4960063;28;19926;-61
2022/10/20 12:17:46;;;;;;;4.78;1.45;;;25.80;37.50;;;;;;4959055;28;19930;-62
2022/10/20 12:20:46;;;;;;;2.10;1.30;;;25.70;37.40;;;;;;4962948;28;20066;-61
2022/10/20 12:23:56;;;;;;;1.45;1.20;;;25.70;37.40;;;;;;4962857;28;20154;-60
2022/10/20 12:26:35;;;;;;;2.40;0.90;;;25.70;37.30;;;;;;4959646;28;20523;-60
2022/10/20 12:29:50;;;;;;;1.75;1.23;;;25.70;37.30;;;;;;4958647;28;20082;-61
2022/10/20 12:32:35;;;;;;;1.40;1.10;;;25.70;37.30;;;;;;4955269;28;20518;-62
2022/10/20 12:35:26;;;;;;;3.70;1.23;;;25.70;37.20;;;;;;4961765;28;20049;-61
2022/10/20 12:38:02;;;;;;;2.58;1.25;;;25.70;37.20;;;;;;4960579;28;20419;-61
2022/10/20 12:40:39;;;;;;;0.80;0.80;;;25.70;37.20;;;;;;4961539;28;20050;-63
2022/10/20 12:43:28;;;;;;;1.58;1.20;;;25.80;37.20;;;;;;4966090;28;20042;-62
2022/10/20 12:46:07;;;;;;;3.22;1.13;;;25.70;37.10;;;;;;4958171;28;20130;-62
2022/10/20 12:48:42;;;;;;;0.80;0.80;;;25.70;37.10;;;;;;4962711;28;20272;-61
2022/10/20 12:51:23;;;;;;;3.50;1.38;;;25.70;37.10;;;;;;4962691;28;20419;-62
2022/10/20 12:54:00;;;;;;;3.97;1.33;;;25.70;37.10;;;;;;4964027;28;20402;-62
2022/10/20 12:56:34;;;;;;;2.00;0.95;;;25.70;37.10;;;;;;4958527;28;20061;-62
2022/10/20 12:59:36;;;;;;;1.58;1.35;;;25.70;37.00;;;;;;4956467;28;20081;-61
2022/10/20 13:02:29;;;;;;;1.48;1.17;;;25.70;37.10;;;;;;4964100;28;20126;-59
2022/10/20 13:05:36;;;;;;;2.05;1.17;;;25.70;37.20;;;;;;4961563;28;20518;-60
2022/10/20 13:08:22;;;;;;;1.73;1.38;;;25.70;37.20;;;;;;4960669;28;20053;-60
2022/10/20 13:10:52;;;;;;;3.67;1.35;;;25.70;37.20;;;;;;4959140;28;20054;-60
2022/10/20 13:13:48;;;;;;;3.60;1.23;;;25.70;37.30;;;;;;4961700;28;20500;-59
2022/10/20 13:16:19;;;;;;;1.65;1.42;;;25.70;37.30;;;;;;4956007;28;20070;-60
2022/10/20 13:18:49;;;;;;;3.53;1.17;;;25.70;37.30;;;;;;4962006;28;20602;-61
2022/10/20 13:21:28;;;;;;;2.15;1.50;;;25.70;37.30;;;;;;4958487;28;20130;-59
2022/10/20 13:24:12;;;;;;;2.47;1.83;;;25.70;37.30;;;;;;4962493;28;20057;-60
2022/10/20 13:26:55;;;;;;;5.70;2.45;;;25.70;37.30;;;;;;4960150;28;20058;-60